Time;durP1;ratioP1;P1;durP2;ratioP2;P2;SDS_P1;SDS_P2;PMS_P1;PMS_P2;Temp;Humidity;BMP_temperature;BMP_pressure;BME280_temperature;BME280_humidity;BME280_pressure;Samples;Min_cycle;Max_cycle;Signal;HPM_P1;HPM_P2
2022/05/02 00:02:00;;;;;;;;;;;;;;;16.99;59.71;101223.16;4411133;32;19972;-70
2022/05/02 00:04:26;;;;;;;;;;;;;;;16.97;59.73;101220.00;4412949;32;19965;-70
2022/05/02 00:06:51;;;;;;;;;;;;;;;16.93;59.18;101215.72;4417642;32;20349;-70
2022/05/02 00:09:17;;;;;;;;;;;;;;;16.97;59.28;101222.84;4413803;32;19980;-70
2022/05/02 00:11:43;;;;;;;;;;;;;;;16.95;59.61;101214.00;4412782;32;20239;-70
2022/05/02 00:14:08;;;;;;;;;;;;;;;16.81;59.86;101210.97;4413031;32;20011;-70
2022/05/02 00:16:35;;;;;;;;;;;;;;;17.05;59.49;101214.78;4414018;32;20001;-70
2022/05/02 00:19:01;;;;;;;;;;;;;;;16.93;59.47;101218.56;4414000;32;20236;-70
2022/05/02 00:21:27;;;;;;;;;;;;;;;16.75;59.72;101213.63;4413503;32;20016;-70
2022/05/02 00:23:52;;;;;;;;;;;;;;;16.69;60.06;101217.56;4413791;32;19957;-70
2022/05/02 00:26:18;;;;;;;;;;;;;;;16.86;59.63;101211.16;4416541;32;19991;-70
2022/05/02 00:28:43;;;;;;;;;;;;;;;16.80;59.75;101215.88;4413663;32;20005;-70
2022/05/02 00:31:09;;;;;;;;;;;;;;;16.72;59.58;101211.72;4413991;32;20008;-70
2022/05/02 00:33:35;;;;;;;;;;;;;;;16.79;59.48;101216.34;4412159;32;20011;-70
2022/05/02 00:36:00;;;;;;;;;;;;;;;16.78;59.68;101204.16;4413087;32;19961;-70
2022/05/02 00:38:26;;;;;;;;;;;;;;;16.73;59.43;101216.16;4415214;32;19953;-70
2022/05/02 00:40:52;;;;;;;;;;;;;;;16.70;59.73;101211.44;4414935;32;20042;-70
2022/05/02 00:43:18;;;;;;;;;;;;;;;16.73;59.07;101195.47;4414153;32;19973;-70
2022/05/02 00:45:43;;;;;;;;;;;;;;;16.57;60.16;101205.03;4410577;32;20663;-70
2022/05/02 00:48:09;;;;;;;;;;;;;;;16.45;59.42;101205.19;4415653;32;20017;-70
2022/05/02 00:53:12;;;;;;;;;;;;;;;16.12;61.39;101196.31;3949965;32;15724417;-70
2022/05/02 00:55:39;;;;;;;;;;;;;;;16.34;61.09;101204.78;4433925;32;19961;-70
2022/05/02 00:58:05;;;;;;;;;;;;;;;16.27;61.50;101196.53;4434779;32;20011;-70
2022/05/02 01:00:31;;;;;;;;;;;;;;;16.00;61.55;101194.38;4432549;32;20322;-70
2022/05/02 01:03:00;;;;;;;;;;;;;;;15.92;62.56;101193.84;4432939;32;19972;-70
2022/05/02 01:05:28;;;;;;;;;;;;;;;15.84;62.25;101201.03;4432339;32;20001;-70
2022/05/02 01:07:53;;;;;;;;;;;;;;;16.02;61.43;101206.06;4434037;32;19958;-70
2022/05/02 01:10:20;;;;;;;;;;;;;;;15.79;61.91;101200.84;4432864;32;20398;-70
2022/05/02 01:12:47;;;;;;;;;;;;;;;15.74;62.08;101199.41;4432054;32;19976;-70
2022/05/02 01:15:13;;;;;;;;;;;;;;;15.80;62.26;101197.56;4433068;32;19987;-70
2022/05/02 01:17:38;;;;;;;;;;;;;;;15.99;61.09;101204.16;4431527;32;19950;-70
2022/05/02 01:20:06;;;;;;;;;;;;;;;16.11;61.13;101203.28;4434412;32;20038;-70
2022/05/02 01:22:31;;;;;;;;;;;;;;;16.10;60.86;101198.06;4430718;32;20008;-70
2022/05/02 01:24:57;;;;;;;;;;;;;;;16.12;60.79;101204.03;4432591;32;20014;-70
2022/05/02 01:27:23;;;;;;;;;;;;;;;16.14;60.88;101205.16;4431920;32;20028;-70
2022/05/02 01:29:48;;;;;;;;;;;;;;;16.16;60.71;101208.31;4430858;32;20001;-70
2022/05/02 01:32:14;;;;;;;;;;;;;;;16.16;60.65;101213.19;4431135;32;20020;-70
2022/05/02 01:34:40;;;;;;;;;;;;;;;16.21;60.67;101209.78;4429865;32;19992;-71
2022/05/02 01:37:06;;;;;;;;;;;;;;;16.15;60.31;101206.75;4432310;32;20033;-71
2022/05/02 01:39:32;;;;;;;;;;;;;;;16.28;60.19;101215.97;4434292;32;20001;-71
2022/05/02 01:42:01;;;;;;;;;;;;;;;16.27;59.93;101216.44;4433195;32;20001;-70
2022/05/02 01:44:26;;;;;;;;;;;;;;;16.26;59.89;101207.09;4432176;32;19989;-70
2022/05/02 01:46:52;;;;;;;;;;;;;;;16.23;59.57;101204.44;4431046;32;19997;-71
2022/05/02 01:49:18;;;;;;;;;;;;;;;16.30;60.18;101213.47;4433081;32;20016;-71
2022/05/02 01:51:44;;;;;;;;;;;;;;;16.34;59.35;101202.72;4430869;32;20003;-70
2022/05/02 01:54:09;;;;;;;;;;;;;;;16.69;58.57;101203.37;4430271;32;20236;-70
2022/05/02 01:56:35;;;;;;;;;;;;;;;16.35;59.61;101212.06;4432117;32;19990;-70
2022/05/02 01:59:01;;;;;;;;;;;;;;;16.37;59.96;101215.19;4431875;32;20004;-70
2022/05/02 02:01:27;;;;;;;;;;;;;;;16.29;60.53;101211.09;4432134;32;20115;-71
2022/05/02 02:03:52;;;;;;;;;;;;;;;16.15;61.09;101220.94;4426070;32;20280;-71
2022/05/02 02:06:18;;;;;;;;;;;;;;;16.25;60.49;101218.94;4420931;32;19964;-70
2022/05/02 02:08:43;;;;;;;;;;;;;;;16.18;60.98;101213.53;4422090;32;20001;-70
2022/05/02 02:11:10;;;;;;;;;;;;;;;16.16;61.12;101214.00;4421497;32;19992;-70
2022/05/02 02:13:36;;;;;;;;;;;;;;;16.13;61.39;101217.00;4419154;32;20004;-71
2022/05/02 02:16:02;;;;;;;;;;;;;;;16.22;61.19;101225.53;4419062;32;20005;-71
2022/05/02 02:18:28;;;;;;;;;;;;;;;16.27;61.10;101222.09;4422621;32;20019;-71
2022/05/02 02:20:54;;;;;;;;;;;;;;;16.26;61.06;101217.69;4421694;32;19990;-71
2022/05/02 02:23:20;;;;;;;;;;;;;;;16.22;61.21;101222.69;4420134;32;20020;-70
2022/05/02 02:25:47;;;;;;;;;;;;;;;16.21;61.05;101219.09;4422919;32;19996;-70
2022/05/02 02:28:13;;;;;;;;;;;;;;;16.10;61.40;101209.41;4419362;32;20393;-70
2022/05/02 02:30:39;;;;;;;;;;;;;;;16.15;61.90;101220.94;4422391;32;19985;-71
2022/05/02 02:33:05;;;;;;;;;;;;;;;16.21;61.99;101210.56;4420849;32;19996;-70
2022/05/02 02:35:30;;;;;;;;;;;;;;;16.31;61.68;101209.34;4421281;32;19949;-70
2022/05/02 02:37:56;;;;;;;;;;;;;;;16.23;61.63;101207.25;4420601;32;19965;-70
2022/05/02 02:40:22;;;;;;;;;;;;;;;16.23;61.66;101212.94;4420265;32;20076;-71
2022/05/02 02:42:48;;;;;;;;;;;;;;;16.35;61.41;101207.16;4418913;32;19993;-71
2022/05/02 02:45:13;;;;;;;;;;;;;;;16.44;60.93;101212.91;4419707;32;20112;-70
2022/05/02 02:47:39;;;;;;;;;;;;;;;16.37;61.20;101213.16;4423902;32;19952;-70
2022/05/02 02:50:05;;;;;;;;;;;;;;;16.51;60.93;101206.16;4420656;32;20402;-70
2022/05/02 02:52:30;;;;;;;;;;;;;;;16.61;60.71;101207.75;4419644;32;20351;-70
2022/05/02 02:54:56;;;;;;;;;;;;;;;16.55;60.73;101212.47;4420840;32;19973;-70
2022/05/02 02:57:21;;;;;;;;;;;;;;;16.51;61.14;101211.81;4420671;32;19961;-70
2022/05/02 02:59:47;;;;;;;;;;;;;;;16.43;61.42;101208.50;4419423;32;20377;-71
2022/05/02 03:02:13;;;;;;;;;;;;;;;16.50;61.13;101204.56;4420217;32;20145;-71
2022/05/02 03:07:26;;;;;;;;;;;;;;;16.51;61.07;101209.00;4423748;32;19983;-71
2022/05/02 03:09:51;;;;;;;;;;;;;;;16.39;61.21;101198.50;4420329;32;19969;-71
2022/05/02 03:12:17;;;;;;;;;;;;;;;16.46;61.38;101203.91;4416305;32;19979;-70
2022/05/02 03:14:42;;;;;;;;;;;;;;;16.39;61.87;101204.16;4420708;32;19998;-70
2022/05/02 03:17:08;;;;;;;;;;;;;;;16.25;61.99;101202.69;4419936;32;20033;-70
2022/05/02 03:19:33;;;;;;;;;;;;;;;16.38;61.87;101203.37;4420671;32;20032;-70
2022/05/02 03:21:59;;;;;;;;;;;;;;;16.32;61.71;101202.41;4420988;32;20000;-70
2022/05/02 03:24:24;;;;;;;;;;;;;;;16.36;61.67;101205.91;4422373;32;20029;-70
2022/05/02 03:26:49;;;;;;;;;;;;;;;16.34;61.19;101204.78;4419943;32;20332;-70
2022/05/02 03:29:15;;;;;;;;;;;;;;;16.30;61.13;101199.25;4420761;32;21403;-70
2022/05/02 03:31:40;;;;;;;;;;;;;;;16.14;60.98;101198.69;4418579;32;20373;-70
2022/05/02 03:34:06;;;;;;;;;;;;;;;16.30;61.05;101196.41;4419040;32;20457;-70
2022/05/02 03:36:32;;;;;;;;;;;;;;;16.23;61.22;101196.69;4420290;32;20380;-70
2022/05/02 03:38:57;;;;;;;;;;;;;;;16.24;61.07;101198.28;4422566;32;19986;-70
2022/05/02 03:41:22;;;;;;;;;;;;;;;16.18;61.35;101200.13;4421127;32;20029;-70
2022/05/02 03:43:48;;;;;;;;;;;;;;;16.14;60.96;101199.47;4420558;32;19989;-70
2022/05/02 03:46:13;;;;;;;;;;;;;;;16.28;60.83;101196.06;4408043;32;20027;-70
2022/05/02 03:48:39;;;;;;;;;;;;;;;16.28;61.01;101200.97;4422651;32;20208;-70
2022/05/02 03:51:04;;;;;;;;;;;;;;;16.38;60.96;101197.69;4423385;32;20003;-70
2022/05/02 03:53:30;;;;;;;;;;;;;;;16.40;60.76;101195.19;4421002;32;19992;-70
2022/05/02 03:55:55;;;;;;;;;;;;;;;16.32;60.77;101205.25;4418060;32;20357;-70
2022/05/02 03:58:21;;;;;;;;;;;;;;;16.33;61.43;101189.81;4423215;32;20303;-70
2022/05/02 04:00:47;;;;;;;;;;;;;;;16.18;61.32;101200.13;4420008;32;19980;-70
2022/05/02 04:03:13;;;;;;;;;;;;;;;16.17;61.57;101194.94;4418482;32;19957;-70
2022/05/02 04:05:38;;;;;;;;;;;;;;;16.08;61.85;101192.03;4419540;32;20100;-70
2022/05/02 04:08:04;;;;;;;;;;;;;;;16.14;61.73;101190.94;4420229;32;20003;-71
2022/05/02 04:10:29;;;;;;;;;;;;;;;16.00;62.03;101191.53;4417188;32;20389;-70
2022/05/02 04:12:55;;;;;;;;;;;;;;;16.04;62.46;101197.84;4420801;32;20011;-70
2022/05/02 04:15:20;;;;;;;;;;;;;;;15.89;63.01;101185.47;4419699;32;19977;-70
2022/05/02 04:17:46;;;;;;;;;;;;;;;15.88;63.07;101181.06;4420880;32;20016;-70
2022/05/02 04:20:12;;;;;;;;;;;;;;;15.97;63.00;101189.63;4421138;32;20350;-71
2022/05/02 04:22:40;;;;;;;;;;;;;;;16.32;61.65;101191.03;4420022;32;20346;-71
2022/05/02 04:25:06;;;;;;;;;;;;;;;16.36;60.52;101194.53;4421457;32;20000;-71
2022/05/02 04:27:31;;;;;;;;;;;;;;;16.38;61.25;101189.16;4420798;32;20384;-71
2022/05/02 04:29:57;;;;;;;;;;;;;;;16.29;61.12;101191.19;4411503;32;19961;-70
2022/05/02 04:32:23;;;;;;;;;;;;;;;16.40;61.79;101195.19;4418305;32;19960;-71
2022/05/02 04:34:48;;;;;;;;;;;;;;;16.32;61.71;101193.09;4418792;32;20011;-71
2022/05/02 04:37:14;;;;;;;;;;;;;;;16.31;61.94;101194.34;4420992;32;20255;-71
2022/05/02 04:39:39;;;;;;;;;;;;;;;16.38;61.72;101191.25;4419781;32;20410;-71
2022/05/02 04:42:05;;;;;;;;;;;;;;;16.38;61.40;101194.06;4419973;32;19961;-69
2022/05/02 04:44:32;;;;;;;;;;;;;;;16.42;61.37;101192.69;4420683;32;20006;-70
2022/05/02 04:46:58;;;;;;;;;;;;;;;16.07;61.48;101191.25;4422080;32;20587;-69
2022/05/02 04:49:24;;;;;;;;;;;;;;;16.30;61.64;101193.56;4419427;32;20023;-70
2022/05/02 04:51:49;;;;;;;;;;;;;;;16.42;61.26;101194.72;4420458;32;19986;-70
2022/05/02 04:54:15;;;;;;;;;;;;;;;16.55;60.67;101195.41;4408727;32;19957;-70
2022/05/02 04:56:41;;;;;;;;;;;;;;;16.17;61.44;101192.87;4420516;32;20102;-70
2022/05/02 04:59:07;;;;;;;;;;;;;;;16.42;60.25;101192.69;4420441;32;20370;-71
2022/05/02 05:01:33;;;;;;;;;;;;;;;16.43;60.54;101194.28;4421776;32;19953;-70
2022/05/02 05:03:59;;;;;;;;;;;;;;;16.16;61.67;101185.59;4416098;32;19953;-70
2022/05/02 05:06:24;;;;;;;;;;;;;;;16.11;61.75;101191.91;4419441;32;20084;-70
2022/05/02 05:08:50;;;;;;;;;;;;;;;16.16;61.64;101199.81;4420863;32;20002;-70
2022/05/02 05:11:35;;;;;;;;;;;;;;;16.03;62.30;101187.75;4421027;32;20039;-70
2022/05/02 05:16:44;;;;;;;;;;;;;;;16.28;62.17;101195.28;3950932;32;15731549;-70
2022/05/02 05:19:20;;;;;;;;;;;;;;;16.23;62.26;101193.84;4429739;32;19953;-70
2022/05/02 05:21:58;;;;;;;;;;;;;;;16.32;62.19;101198.78;4426537;32;20408;-70
2022/05/02 05:29:44;;;;;;;;;;;;;;;16.79;60.19;101208.62;3953648;32;15724417;-70
2022/05/02 05:37:37;;;;;;;;;;;;;;;17.15;59.86;101210.72;3951435;32;15722929;-70
2022/05/02 05:50:41;;;;;;;;;;;;;;;16.93;60.11;101218.56;3960847;31;15719167;-70
2022/05/02 05:53:26;;;;;;;;;;;;;;;16.92;60.06;101217.78;4439600;32;20394;-70
2022/05/02 05:55:59;;;;;;;;;;;;;;;16.93;59.65;101212.87;4440697;32;20013;-71
2022/05/02 06:01:10;;;;;;;;;;;;;;;17.51;58.17;101224.97;3952602;32;15721307;-70
2022/05/02 06:03:44;;;;;;;;;;;;;;;17.51;58.17;101224.97;4426353;32;20027;-70
2022/05/02 06:06:13;;;;;;;;;;;;;;;17.12;58.60;101220.97;4428808;32;20024;-70
2022/05/02 06:08:39;;;;;;;;;;;;;;;17.29;58.59;101218.62;4427105;32;20019;-70
2022/05/02 06:11:07;;;;;;;;;;;;;;;17.37;57.97;101222.75;4426922;32;20009;-70
2022/05/02 06:13:34;;;;;;;;;;;;;;;17.39;57.73;101228.72;4427048;32;19986;-70
2022/05/02 06:18:48;;;;;;;;;;;;;;;17.28;58.36;101229.19;4427930;32;19953;-70
2022/05/02 06:21:15;;;;;;;;;;;;;;;17.36;58.35;101232.53;4425463;32;20009;-70
2022/05/02 06:23:41;;;;;;;;;;;;;;;17.49;57.69;101230.37;4427512;32;20004;-70
2022/05/02 06:26:07;;;;;;;;;;;;;;;17.76;56.85;101239.66;4426952;32;19960;-70
2022/05/02 06:28:39;;;;;;;;;;;;;;;17.75;57.19;101228.75;4427232;32;19969;-70
2022/05/02 06:31:05;;;;;;;;;;;;;;;17.87;56.60;101227.78;4430365;32;19957;-70
2022/05/02 06:33:31;;;;;;;;;;;;;;;17.92;56.25;101230.78;4428781;32;20365;-70
2022/05/02 06:39:01;;;;;;;;;;;;;;;18.60;54.98;101243.44;3951767;32;15723337;-70
2022/05/02 06:41:38;;;;;;;;;;;;;;;18.60;54.98;101243.44;4433415;32;19961;-70
2022/05/02 06:46:54;;;;;;;;;;;;;;;18.78;53.71;101253.97;3952658;32;15724639;-71
2022/05/02 06:49:22;;;;;;;;;;;;;;;18.78;53.71;101253.97;4427380;32;20061;-71
2022/05/02 06:51:49;;;;;;;;;;;;;;;18.52;54.33;101235.69;4426951;32;19976;-71
2022/05/02 06:57:10;;;;;;;;;;;;;;;19.20;52.96;101266.06;3950234;32;15722680;-71
2022/05/02 06:59:38;;;;;;;;;;;;;;;19.20;52.96;101266.06;4416988;32;19947;-71
2022/05/02 07:04:49;;;;;;;;;;;;;;;19.19;52.62;101265.28;3956286;32;15726122;-70
2022/05/02 07:07:35;;;;;;;;;;;;;;;19.19;52.62;101265.28;4431012;32;20061;-70
2022/05/02 07:10:03;;;;;;;;;;;;;;;18.88;52.32;101261.19;4431042;32;20000;-70
2022/05/02 07:12:30;;;;;;;;;;;;;;;18.84;52.81;101263.44;4428567;32;20357;-70
2022/05/02 07:15:15;;;;;;;;;;;;;;;18.73;53.16;101261.09;4434077;32;19993;-70
2022/05/02 07:20:22;;;;;;;;;;;;;;;18.94;52.33;101270.66;3946995;32;15842556;-70
2022/05/02 07:22:57;;;;;;;;;;;;;;;18.93;52.46;101269.88;4428221;32;19983;-71
2022/05/02 07:25:24;;;;;;;;;;;;;;;19.08;52.28;101272.78;4431550;32;21059;-71
2022/05/02 07:30:32;;;;;;;;;;;;;;;19.77;50.39;101274.06;3950970;32;15750615;-71
2022/05/02 07:33:01;;;;;;;;;;;;;;;19.77;50.39;101274.06;4430776;32;20341;-71
2022/05/02 07:35:27;;;;;;;;;;;;;;;19.20;51.50;101278.28;4427087;32;20032;-71
2022/05/02 07:37:53;;;;;;;;;;;;;;;19.30;51.27;101273.34;4433789;32;20345;-71
2022/05/02 07:40:20;;;;;;;;;;;;;;;19.49;50.54;101284.13;4434015;32;19976;-71
2022/05/02 07:42:46;;;;;;;;;;;;;;;19.83;49.99;101274.94;4431967;32;20013;-71
2022/05/02 07:45:14;;;;;;;;;;;;;;;20.05;49.20;101273.78;4432723;32;20315;-71
2022/05/02 07:47:41;;;;;;;;;;;;;;;19.91;48.84;101275.34;4433019;32;20342;-71
2022/05/02 07:50:07;;;;;;;;;;;;;;;20.00;49.20;101280.22;4428690;32;19988;-71
2022/05/02 07:52:35;;;;;;;;;;;;;;;20.34;48.45;101286.06;4429027;32;20214;-71
2022/05/02 07:55:00;;;;;;;;;;;;;;;20.53;47.95;101286.66;4429812;32;20309;-71
2022/05/02 07:57:27;;;;;;;;;;;;;;;20.45;47.76;101291.19;4430656;32;20031;-71
2022/05/02 07:59:54;;;;;;;;;;;;;;;20.49;47.70;101283.22;4431395;32;19997;-71
2022/05/02 08:02:21;;;;;;;;;;;;;;;20.08;48.15;101287.91;4429901;32;19997;-71
2022/05/02 08:04:47;;;;;;;;;;;;;;;20.20;47.89;101295.44;4429114;32;20208;-71
2022/05/02 08:07:15;;;;;;;;;;;;;;;20.47;47.88;101288.63;4433349;32;20320;-71
2022/05/02 08:12:37;;;;;;;;;;;;;;;22.14;43.80;101293.34;3949837;32;15723541;-71
2022/05/02 08:15:08;;;;;;;;;;;;;;;22.14;43.80;101293.34;4427892;32;19960;-71
2022/05/02 08:20:23;;;;;;;;;;;;;;;22.59;43.21;101310.53;3951289;32;15725355;-71
2022/05/02 08:31:19;;;;;;;;;;;;;;;22.32;43.11;101310.22;3965402;31;15720004;-71
2022/05/02 08:33:54;;;;;;;;;;;;;;;22.67;42.32;101308.75;4448884;32;19963;-71
2022/05/02 08:36:28;;;;;;;;;;;;;;;23.02;41.37;101308.50;4450391;32;19999;-71
2022/05/02 08:38:55;;;;;;;;;;;;;;;23.09;41.26;101302.28;4449741;32;20015;-71
2022/05/02 09:02:41;;;;;;;;;;;;;;;22.57;42.23;101315.16;3949121;32;15724614;-70
2022/05/02 09:05:26;;;;;;;;;;;;;;;22.78;41.13;101313.78;4424260;32;20016;-71
2022/05/02 09:10:50;;;;;;;;;;;;;;;23.28;39.86;101312.06;3948831;32;15724128;-71
2022/05/02 09:13:36;;;;;;;;;;;;;;;23.28;39.86;101312.06;4413267;32;20849;-71
2022/05/02 09:21:29;;;;;;;;;;;;;;;23.62;39.90;101313.06;3940599;32;15721596;-71
2022/05/02 09:40:09;;;;;;;;;;;;;;;24.53;37.39;101321.72;3964164;31;15716569;-71
2022/05/02 09:56:38;;;;;;;;;;;;;;;25.02;36.23;101320.94;3950777;32;15722321;-71
2022/05/02 09:58:54;;;;;;;;;;;;;;;25.02;36.23;101320.94;4429223;32;19985;-71
2022/05/02 10:01:21;;;;;;;;;;;;;;;24.55;36.28;101321.97;4428362;32;20011;-71
2022/05/02 10:03:59;;;;;;;;;;;;;;;24.24;37.40;101325.03;4426302;32;19949;-71
2022/05/02 10:09:21;;;;;;;;;;;;;;;25.19;36.03;101320.94;3951261;32;15723631;-71
2022/05/02 10:14:44;;;;;;;;;;;;;;;25.47;35.98;101327.44;3951901;32;15728415;-71
2022/05/02 10:17:17;;;;;;;;;;;;;;;25.47;35.98;101327.44;4414819;32;19966;-71
2022/05/02 10:20:02;;;;;;;;;;;;;;;25.25;35.86;101328.22;4428349;32;19975;-71
2022/05/02 10:25:15;;;;;;;;;;;;;;;25.58;35.71;101327.41;3951167;32;15724564;-71
2022/05/02 10:28:01;;;;;;;;;;;;;;;25.79;34.88;101327.84;4428971;32;19992;-71
2022/05/02 10:30:29;;;;;;;;;;;;;;;26.20;33.90;101320.06;4427723;32;20008;-72
2022/05/02 10:32:56;;;;;;;;;;;;;;;25.53;34.92;101313.81;4427550;32;20012;-71
2022/05/02 10:35:23;;;;;;;;;;;;;;;25.88;34.22;101305.25;4430493;32;19995;-71
2022/05/02 10:40:41;;;;;;;;;;;;;;;27.05;32.65;101321.25;3951141;32;15728348;-71
2022/05/02 10:43:07;;;;;;;;;;;;;;;27.05;32.65;101321.25;4434289;32;20025;-71
2022/05/02 10:45:35;;;;;;;;;;;;;;;27.01;31.92;101314.22;4434354;32;19990;-71
2022/05/02 10:48:15;;;;;;;;;;;;;;;27.07;31.58;101320.72;4432267;32;19988;-71
2022/05/02 10:50:44;;;;;;;;;;;;;;;26.88;32.17;101314.84;4432189;32;19992;-70
2022/05/02 10:56:06;;;;;;;;;;;;;;;26.24;33.63;101320.56;3944940;32;15926596;-71
2022/05/02 10:58:34;;;;;;;;;;;;;;;26.33;33.46;101306.59;4426725;32;19958;-71
2022/05/02 11:01:16;;;;;;;;;;;;;;;26.06;33.42;101310.44;4426071;32;20404;-71
2022/05/02 11:09:13;;;;;;;;;;;;;;;25.93;33.92;101309.44;3951759;32;15723617;-70
2022/05/02 11:11:47;;;;;;;;;;;;;;;25.93;33.92;101309.44;4426322;32;20024;-70
2022/05/02 11:25:02;;;;;;;;;;;;;;;24.15;37.89;101293.69;3952623;32;15726598;-70
2022/05/02 11:30:15;;;;;;;;;;;;;;;24.22;37.44;101301.78;3945834;32;15724477;-71
2022/05/02 11:33:02;;;;;;;;;;;;;;;24.22;37.44;101301.78;4409030;32;19997;-71
2022/05/02 11:35:32;;;;;;;;;;;;;;;24.32;36.64;101305.19;4414177;32;20083;-71
2022/05/02 11:40:45;;;;;;;;;;;;;;;24.46;36.61;101307.06;3952077;32;15724617;-71
2022/05/02 11:43:14;;;;;;;;;;;;;;;24.46;36.61;101307.06;4427931;32;20252;-71
2022/05/02 11:51:07;;;;;;;;;;;;;;;24.53;36.80;101309.41;3971550;32;15724546;-72
2022/05/02 11:53:35;;;;;;;;;;;;;;;24.53;36.80;101309.41;4449909;32;20328;-71
2022/05/02 11:56:03;;;;;;;;;;;;;;;24.03;37.42;101303.56;4451218;32;20000;-71
2022/05/02 11:58:45;;;;;;;;;;;;;;;24.07;37.67;101300.44;4453001;32;20085;-71
2022/05/02 12:01:12;;;;;;;;;;;;;;;23.75;38.45;101296.12;4453543;32;19993;-71
2022/05/02 12:06:23;;;;;;;;;;;;;;;23.63;39.80;101298.19;3973300;31;15716168;-71
2022/05/02 12:08:49;;;;;;;;;;;;;;;23.63;39.80;101298.19;4446859;32;19957;-71
2022/05/02 12:11:15;;;;;;;;;;;;;;;22.40;41.17;101299.88;4447514;32;19965;-70
2022/05/02 12:13:46;;;;;;;;;;;;;;;23.15;40.19;101300.22;4450058;32;19961;-70
2022/05/02 12:16:15;;;;;;;;;;;;;;;23.23;39.61;101298.47;4443383;32;20023;-70
2022/05/02 12:24:13;;;;;;;;;;;;;;;23.43;38.92;101301.19;3953539;32;15723420;-71
2022/05/02 12:26:47;;;;;;;;;;;;;;;22.98;39.92;101302.22;4430864;32;19997;-71
2022/05/02 12:29:14;;;;;;;;;;;;;;;22.62;40.89;101303.75;4413249;32;19961;-71
2022/05/02 12:31:42;;;;;;;;;;;;;;;22.34;41.19;101299.03;4428706;32;20343;-71
2022/05/02 12:34:10;;;;;;;;;;;;;;;22.29;41.71;101294.81;4428456;32;19965;-71
2022/05/02 12:36:52;;;;;;;;;;;;;;;22.13;42.01;101288.91;4430872;32;19986;-71
2022/05/02 12:39:24;;;;;;;;;;;;;;;22.67;41.43;101296.50;4431272;32;20242;-71
2022/05/02 12:41:53;;;;;;;;;;;;;;;22.94;40.67;101295.91;4426942;32;19993;-71
2022/05/02 12:44:23;;;;;;;;;;;;;;;23.14;40.17;101296.56;4430595;32;19994;-71
2022/05/02 12:46:50;;;;;;;;;;;;;;;23.23;40.24;101295.59;4429502;32;20649;-71
2022/05/02 12:49:21;;;;;;;;;;;;;;;23.34;39.50;101298.53;4430721;32;20057;-71
2022/05/02 12:51:49;;;;;;;;;;;;;;;23.02;39.72;101294.94;4427157;32;20025;-71
2022/05/02 12:54:15;;;;;;;;;;;;;;;22.74;40.01;101296.03;4428485;32;19958;-71
2022/05/02 13:00:30;;;;;;;;;;;;;;;22.54;40.59;101291.16;4426557;32;19989;-71
2022/05/02 13:02:33;;;;;;;;;;;;;;;22.45;40.38;101293.38;4425590;32;19961;-71
2022/05/02 13:05:00;;;;;;;;;;;;;;;22.39;40.70;101286.81;4426875;32;19953;-71
2022/05/02 13:07:26;;;;;;;;;;;;;;;22.30;40.45;101292.75;4429949;32;20019;-71
2022/05/02 13:09:52;;;;;;;;;;;;;;;22.64;39.90;101289.69;4429153;32;19950;-71
2022/05/02 13:12:18;;;;;;;;;;;;;;;22.70;39.73;101293.38;4428434;32;20016;-71
2022/05/02 13:14:44;;;;;;;;;;;;;;;22.32;40.45;101287.28;4415814;32;21095;-71
2022/05/02 13:17:13;;;;;;;;;;;;;;;22.34;40.34;101288.34;4429377;32;19996;-70
2022/05/02 13:19:41;;;;;;;;;;;;;;;22.54;40.33;101291.16;4430605;32;19950;-71
2022/05/02 13:22:06;;;;;;;;;;;;;;;22.73;40.24;101288.72;4428489;32;20570;-71
2022/05/02 13:24:32;;;;;;;;;;;;;;;22.95;40.20;101297.50;4427193;32;20021;-71
2022/05/02 13:27:10;;;;;;;;;;;;;;;22.95;40.05;101301.13;4416024;32;19993;-71
2022/05/02 13:32:16;;;;;;;;;;;;;;;23.31;39.79;101293.81;3945567;32;15919487;-71
2022/05/02 13:42:40;;;;;;;;;;;;;;;23.22;39.34;101303.41;3951227;32;15724349;-71
2022/05/02 13:45:26;;;;;;;;;;;;;;;23.19;39.22;101297.87;4432078;32;19984;-71
2022/05/02 13:47:59;;;;;;;;;;;;;;;23.16;39.26;101285.34;4430963;32;19957;-71
2022/05/02 13:50:26;;;;;;;;;;;;;;;23.06;39.64;101294.69;4430764;32;19996;-71
2022/05/02 13:55:28;;;;;;;;;;;;;;;23.54;38.93;101295.53;3951456;32;15723450;-71
2022/05/02 13:58:09;;;;;;;;;;;;;;;23.54;38.93;101295.53;4434368;32;19964;-71
2022/05/02 14:11:13;;;;;;;;;;;;;;;23.40;39.35;101291.53;3969227;31;15722279;-71
2022/05/02 14:13:39;;;;;;;;;;;;;;;23.39;39.33;101289.97;4458856;32;20007;-71
2022/05/02 14:16:05;;;;;;;;;;;;;;;23.33;39.46;101292.03;4456724;32;19968;-71
2022/05/02 14:18:48;;;;;;;;;;;;;;;23.49;39.30;101285.56;4454514;32;21036;-71
2022/05/02 14:21:14;;;;;;;;;;;;;;;23.47;39.19;101290.25;4453521;32;19998;-71
2022/05/02 14:23:56;;;;;;;;;;;;;;;23.84;38.76;101282.28;4456039;32;19974;-71
2022/05/02 14:26:23;;;;;;;;;;;;;;;24.13;37.97;101281.91;4455084;32;20004;-71
2022/05/02 14:28:50;;;;;;;;;;;;;;;24.09;38.05;101280.56;4455804;32;19960;-71
2022/05/02 14:31:16;;;;;;;;;;;;;;;24.08;37.66;101290.53;4456731;32;20107;-71
2022/05/02 14:33:43;;;;;;;;;;;;;;;24.12;37.11;101282.41;4455310;32;20378;-71
2022/05/02 14:36:10;;;;;;;;;;;;;;;24.30;37.06;101279.06;4454626;32;19996;-71
2022/05/02 14:38:36;;;;;;;;;;;;;;;24.37;36.80;101285.06;4455038;32;20000;-70
2022/05/02 14:41:03;;;;;;;;;;;;;;;24.31;37.21;101275.66;4456011;32;20091;-70
2022/05/02 14:43:28;;;;;;;;;;;;;;;24.31;37.32;101281.41;4457708;32;20387;-70
2022/05/02 14:45:54;;;;;;;;;;;;;;;24.29;37.13;101277.47;4455875;32;20382;-71
2022/05/02 14:48:20;;;;;;;;;;;;;;;24.15;37.25;101282.16;4446574;32;20315;-71
2022/05/02 14:50:47;;;;;;;;;;;;;;;23.98;37.95;101272.72;4454704;32;20016;-71
2022/05/02 14:53:14;;;;;;;;;;;;;;;23.93;38.49;101281.28;4456059;32;20372;-71
2022/05/02 14:58:19;;;;;;;;;;;;;;;23.77;38.35;101277.06;3967086;31;15717313;-70
2022/05/02 15:00:46;;;;;;;;;;;;;;;23.77;38.35;101277.06;4451414;32;19961;-70
2022/05/02 15:03:14;;;;;;;;;;;;;;;23.40;38.32;101280.03;4451672;32;20304;-70
2022/05/02 15:05:41;;;;;;;;;;;;;;;23.37;38.45;101268.78;4451107;32;20015;-70
2022/05/02 15:08:14;;;;;;;;;;;;;;;23.58;38.40;101275.94;4449631;32;20354;-70
2022/05/02 15:10:59;;;;;;;;;;;;;;;23.18;39.38;101279.91;4451455;32;20021;-70
2022/05/02 15:13:44;;;;;;;;;;;;;;;23.19;39.43;101275.72;4450102;32;19967;-70
2022/05/02 15:16:19;;;;;;;;;;;;;;;23.33;38.76;101274.00;4450772;32;20283;-70
2022/05/02 15:22:01;;;;;;;;;;;;;;;23.61;38.05;101276.97;4451625;32;21775;-70
2022/05/02 15:25:19;;;;;;;;;;;;;;;23.59;37.57;101277.50;4452963;32;19999;-71
2022/05/02 15:38:47;;;;;;;;;;;;;;;23.86;36.56;101273.16;4452285;32;19964;-71
2022/05/02 15:41:13;;;;;;;;;;;;;;;23.37;38.27;101266.72;4452734;32;19948;-71
2022/05/02 15:43:38;;;;;;;;;;;;;;;23.10;38.78;101263.66;4450130;32;20029;-71
2022/05/02 15:46:11;;;;;;;;;;;;;;;23.06;38.78;101266.78;4450086;32;20008;-71
2022/05/02 15:48:39;;;;;;;;;;;;;;;23.76;37.71;101266.88;4451258;32;19953;-71
2022/05/02 15:51:23;;;;;;;;;;;;;;;24.03;36.58;101269.06;4451941;32;19991;-71
2022/05/02 15:53:48;;;;;;;;;;;;;;;24.12;36.66;101271.72;4451129;32;20411;-71
2022/05/02 15:56:15;;;;;;;;;;;;;;;24.20;36.60;101266.22;4455560;32;19996;-71
2022/05/02 15:59:01;;;;;;;;;;;;;;;24.55;36.13;101270.19;4448717;32;19988;-71
2022/05/02 16:01:47;;;;;;;;;;;;;;;24.53;36.39;101263.34;4452775;32;19988;-71
2022/05/02 16:04:15;;;;;;;;;;;;;;;24.91;35.54;101269.12;4453188;32;20146;-72
2022/05/02 16:06:49;;;;;;;;;;;;;;;24.90;36.00;101281.16;4453510;32;20165;-71
2022/05/02 16:12:16;;;;;;;;;;;;;;;24.20;39.35;101284.25;4451559;32;20274;-71
2022/05/02 16:14:43;;;;;;;;;;;;;;;23.87;40.24;101284.13;4450322;32;19970;-71
2022/05/02 16:17:09;;;;;;;;;;;;;;;23.35;41.24;101283.66;4450321;32;19972;-71
2022/05/02 16:19:42;;;;;;;;;;;;;;;22.80;42.15;101291.13;4451476;32;20749;-71
2022/05/02 16:22:09;;;;;;;;;;;;;;;22.32;43.41;101287.28;4449382;32;20279;-71